sensor_id;sensor_type;location;lat;lon;timestamp;pressure;altitude;pressure_sealevel;temperature;humidity
34931;BME280;21134;49.646;8.560;2022-09-28T00:02:11;98788.50;;;9.88;100.00
34931;BME280;21134;49.646;8.560;2022-09-28T00:04:37;98783.38;;;9.90;100.00
34931;BME280;21134;49.646;8.560;2022-09-28T00:07:03;98783.25;;;9.94;100.00
34931;BME280;21134;49.646;8.560;2022-09-28T00:09:31;98773.84;;;9.95;100.00
34931;BME280;21134;49.646;8.560;2022-09-28T00:11:58;98772.25;;;9.91;100.00
34931;BME280;21134;49.646;8.560;2022-09-28T00:14:24;98766.16;;;9.96;100.00
34931;BME280;21134;49.646;8.560;2022-09-28T00:16:51;98755.78;;;10.02;100.00
34931;BME280;21134;49.646;8.560;2022-09-28T00:19:18;98756.63;;;10.01;100.00
34931;BME280;21134;49.646;8.560;2022-09-28T00:21:44;98756.91;;;9.92;100.00
34931;BME280;21134;49.646;8.560;2022-09-28T00:24:13;98752.34;;;10.04;100.00
34931;BME280;21134;49.646;8.560;2022-09-28T00:26:46;98743.75;;;10.06;100.00
34931;BME280;21134;49.646;8.560;2022-09-28T00:29:16;98738.59;;;10.08;100.00
34931;BME280;21134;49.646;8.560;2022-09-28T00:31:43;98740.41;;;10.04;100.00
34931;BME280;21134;49.646;8.560;2022-09-28T00:34:10;98735.09;;;10.12;100.00
34931;BME280;21134;49.646;8.560;2022-09-28T00:36:37;98732.63;;;10.09;100.00
34931;BME280;21134;49.646;8.560;2022-09-28T00:39:06;98730.06;;;10.09;100.00
34931;BME280;21134;49.646;8.560;2022-09-28T00:41:34;98728.94;;;10.19;100.00
34931;BME280;21134;49.646;8.560;2022-09-28T00:44:31;98724.00;;;10.11;100.00
34931;BME280;21134;49.646;8.560;2022-09-28T00:47:00;98723.25;;;10.08;100.00
34931;BME280;21134;49.646;8.560;2022-09-28T00:49:32;98727.28;;;10.16;100.00
34931;BME280;21134;49.646;8.560;2022-09-28T00:52:01;98710.47;;;10.08;100.00
34931;BME280;21134;49.646;8.560;2022-09-28T00:54:29;98702.47;;;10.20;100.00
34931;BME280;21134;49.646;8.560;2022-09-28T00:56:56;98701.72;;;10.18;100.00
34931;BME280;21134;49.646;8.560;2022-09-28T00:59:23;98694.22;;;10.12;100.00
34931;BME280;21134;49.646;8.560;2022-09-28T01:01:51;98688.38;;;10.07;100.00
34931;BME280;21134;49.646;8.560;2022-09-28T01:04:17;98684.75;;;10.14;100.00
34931;BME280;21134;49.646;8.560;2022-09-28T01:06:44;98686.31;;;10.19;100.00
34931;BME280;21134;49.646;8.560;2022-09-28T01:09:12;98678.09;;;10.08;100.00
34931;BME280;21134;49.646;8.560;2022-09-28T01:11:39;98671.13;;;10.15;100.00
34931;BME280;21134;49.646;8.560;2022-09-28T01:14:08;98665.88;;;10.19;100.00
34931;BME280;21134;49.646;8.560;2022-09-28T01:16:40;98656.63;;;10.15;100.00
34931;BME280;21134;49.646;8.560;2022-09-28T01:19:22;98658.72;;;10.01;100.00
34931;BME280;21134;49.646;8.560;2022-09-28T01:21:58;98656.53;;;10.18;100.00
34931;BME280;21134;49.646;8.560;2022-09-28T01:24:38;98648.88;;;10.18;100.00
34931;BME280;21134;49.646;8.560;2022-09-28T01:27:14;98649.78;;;10.16;100.00
34931;BME280;21134;49.646;8.560;2022-09-28T01:29:47;98651.34;;;10.21;100.00
34931;BME280;21134;49.646;8.560;2022-09-28T01:32:25;98644.41;;;10.25;100.00
34931;BME280;21134;49.646;8.560;2022-09-28T01:34:56;98647.16;;;10.17;100.00
34931;BME280;21134;49.646;8.560;2022-09-28T01:37:31;98643.69;;;10.20;100.00
34931;BME280;21134;49.646;8.560;2022-09-28T01:40:01;98641.41;;;10.11;100.00
34931;BME280;21134;49.646;8.560;2022-09-28T01:42:33;98639.75;;;10.10;100.00
34931;BME280;21134;49.646;8.560;2022-09-28T01:45:05;98636.19;;;10.15;100.00
34931;BME280;21134;49.646;8.560;2022-09-28T01:47:36;98633.53;;;10.18;100.00
34931;BME280;21134;49.646;8.560;2022-09-28T01:50:07;98628.22;;;10.26;100.00
34931;BME280;21134;49.646;8.560;2022-09-28T01:52:38;98624.09;;;10.20;100.00
34931;BME280;21134;49.646;8.560;2022-09-28T01:55:10;98619.88;;;10.19;100.00
34931;BME280;21134;49.646;8.560;2022-09-28T01:57:41;98614.94;;;10.13;100.00
34931;BME280;21134;49.646;8.560;2022-09-28T02:00:13;98617.38;;;10.18;100.00
34931;BME280;21134;49.646;8.560;2022-09-28T02:02:43;98617.31;;;10.19;100.00
34931;BME280;21134;49.646;8.560;2022-09-28T02:05:15;98619.03;;;10.19;100.00
34931;BME280;21134;49.646;8.560;2022-09-28T02:07:45;98612.34;;;10.15;100.00
34931;BME280;21134;49.646;8.560;2022-09-28T02:10:18;98606.44;;;10.13;100.00
34931;BME280;21134;49.646;8.560;2022-09-28T02:12:50;98615.00;;;10.12;100.00
34931;BME280;21134;49.646;8.560;2022-09-28T02:15:23;98615.75;;;10.14;100.00
34931;BME280;21134;49.646;8.560;2022-09-28T02:17:52;98612.53;;;10.09;100.00
34931;BME280;21134;49.646;8.560;2022-09-28T02:20:20;98612.53;;;10.09;100.00
34931;BME280;21134;49.646;8.560;2022-09-28T02:22:48;98610.81;;;10.09;100.00
34931;BME280;21134;49.646;8.560;2022-09-28T02:25:20;98593.59;;;10.14;100.00
34931;BME280;21134;49.646;8.560;2022-09-28T02:27:54;98603.91;;;10.11;100.00
34931;BME280;21134;49.646;8.560;2022-09-28T02:30:20;98598.69;;;10.14;100.00
34931;BME280;21134;49.646;8.560;2022-09-28T02:32:49;98591.09;;;10.13;100.00
34931;BME280;21134;49.646;8.560;2022-09-28T02:35:18;98585.09;;;10.14;100.00
34931;BME280;21134;49.646;8.560;2022-09-28T02:37:45;98583.28;;;10.17;100.00
34931;BME280;21134;49.646;8.560;2022-09-28T02:40:13;98588.16;;;10.27;100.00
34931;BME280;21134;49.646;8.560;2022-09-28T02:42:45;98593.41;;;10.20;100.00
34931;BME280;21134;49.646;8.560;2022-09-28T02:45:28;98600.25;;;10.20;100.00
34931;BME280;21134;49.646;8.560;2022-09-28T02:48:05;98597.00;;;10.15;100.00
34931;BME280;21134;49.646;8.560;2022-09-28T02:50:38;98586.91;;;10.10;100.00
34931;BME280;21134;49.646;8.560;2022-09-28T02:53:21;98590.34;;;10.09;100.00
34931;BME280;21134;49.646;8.560;2022-09-28T02:56:05;98590.13;;;10.17;100.00
34931;BME280;21134;49.646;8.560;2022-09-28T02:58:42;98593.47;;;10.19;100.00
34931;BME280;21134;49.646;8.560;2022-09-28T03:01:27;98585.81;;;10.19;100.00
34931;BME280;21134;49.646;8.560;2022-09-28T03:03:59;98581.53;;;10.19;100.00
34931;BME280;21134;49.646;8.560;2022-09-28T03:06:38;98575.72;;;10.14;100.00
34931;BME280;21134;49.646;8.560;2022-09-28T03:09:11;98574.13;;;10.10;100.00
34931;BME280;21134;49.646;8.560;2022-09-28T03:11:45;98575.13;;;10.06;100.00
34931;BME280;21134;49.646;8.560;2022-09-28T03:14:13;98574.38;;;10.02;100.00
34931;BME280;21134;49.646;8.560;2022-09-28T03:16:43;98576.00;;;10.05;100.00
34931;BME280;21134;49.646;8.560;2022-09-28T03:19:10;98578.69;;;10.00;100.00
34931;BME280;21134;49.646;8.560;2022-09-28T03:21:37;98571.81;;;10.02;100.00
34931;BME280;21134;49.646;8.560;2022-09-28T03:24:04;98579.50;;;10.01;100.00
34931;BME280;21134;49.646;8.560;2022-09-28T03:26:31;98583.00;;;9.98;100.00
34931;BME280;21134;49.646;8.560;2022-09-28T03:28:57;98580.41;;;10.00;100.00
34931;BME280;21134;49.646;8.560;2022-09-28T03:31:23;98585.59;;;9.97;100.00
34931;BME280;21134;49.646;8.560;2022-09-28T03:33:51;98582.22;;;9.96;100.00
34931;BME280;21134;49.646;8.560;2022-09-28T03:36:18;98577.97;;;9.95;100.00
34931;BME280;21134;49.646;8.560;2022-09-28T03:38:44;98586.53;;;9.94;100.00
34931;BME280;21134;49.646;8.560;2022-09-28T03:41:11;98577.22;;;9.92;100.00
34931;BME280;21134;49.646;8.560;2022-09-28T03:43:37;98589.13;;;9.93;100.00
34931;BME280;21134;49.646;8.560;2022-09-28T03:46:04;98593.34;;;9.94;100.00
34931;BME280;21134;49.646;8.560;2022-09-28T03:48:33;98591.78;;;9.90;100.00
34931;BME280;21134;49.646;8.560;2022-09-28T03:51:03;98589.25;;;9.88;100.00
34931;BME280;21134;49.646;8.560;2022-09-28T03:53:32;98592.63;;;9.89;100.00
34931;BME280;21134;49.646;8.560;2022-09-28T03:56:01;98588.44;;;9.88;100.00
34931;BME280;21134;49.646;8.560;2022-09-28T03:58:28;98585.84;;;9.89;100.00
34931;BME280;21134;49.646;8.560;2022-09-28T04:01:00;98586.69;;;9.90;100.00
34931;BME280;21134;49.646;8.560;2022-09-28T04:03:27;98587.53;;;9.89;100.00
34931;BME280;21134;49.646;8.560;2022-09-28T04:05:53;98588.50;;;9.85;100.00
34931;BME280;21134;49.646;8.560;2022-09-28T04:08:21;98586.94;;;9.81;100.00
34931;BME280;21134;49.646;8.560;2022-09-28T04:10:48;98589.56;;;9.77;100.00
34931;BME280;21134;49.646;8.560;2022-09-28T04:13:14;98597.34;;;9.73;100.00
34931;BME280;21134;49.646;8.560;2022-09-28T04:15:41;98585.38;;;9.75;100.00
34931;BME280;21134;49.646;8.560;2022-09-28T04:18:08;98586.34;;;9.71;100.00
34931;BME280;21134;49.646;8.560;2022-09-28T04:20:35;98592.31;;;9.70;100.00
34931;BME280;21134;49.646;8.560;2022-09-28T04:23:04;98591.50;;;9.69;100.00
34931;BME280;21134;49.646;8.560;2022-09-28T04:25:32;98585.53;;;9.70;100.00
34931;BME280;21134;49.646;8.560;2022-09-28T04:27:58;98580.44;;;9.69;100.00
34931;BME280;21134;49.646;8.560;2022-09-28T04:30:45;98583.09;;;9.66;100.00
34931;BME280;21134;49.646;8.560;2022-09-28T04:33:11;98582.34;;;9.62;100.00
34931;BME280;21134;49.646;8.560;2022-09-28T04:35:38;98584.81;;;9.65;100.00
34931;BME280;21134;49.646;8.560;2022-09-28T04:38:04;98581.28;;;9.69;100.00
34931;BME280;21134;49.646;8.560;2022-09-28T04:40:32;98590.72;;;9.67;100.00
34931;BME280;21134;49.646;8.560;2022-09-28T04:42:58;98588.16;;;9.67;100.00
34931;BME280;21134;49.646;8.560;2022-09-28T04:45:25;98595.94;;;9.63;100.00
34931;BME280;21134;49.646;8.560;2022-09-28T04:47:52;98598.53;;;9.61;100.00
34931;BME280;21134;49.646;8.560;2022-09-28T04:50:18;98601.03;;;9.64;100.00
34931;BME280;21134;49.646;8.560;2022-09-28T04:52:45;98601.78;;;9.66;100.00
34931;BME280;21134;49.646;8.560;2022-09-28T04:55:12;98589.09;;;9.63;100.00
34931;BME280;21134;49.646;8.560;2022-09-28T04:57:40;98590.00;;;9.62;100.00
34931;BME280;21134;49.646;8.560;2022-09-28T05:00:07;98598.50;;;9.63;100.00
34931;BME280;21134;49.646;8.560;2022-09-28T05:02:34;98597.66;;;9.62;100.00
34931;BME280;21134;49.646;8.560;2022-09-28T05:05:01;98597.66;;;9.62;100.00
34931;BME280;21134;49.646;8.560;2022-09-28T05:07:28;98608.69;;;9.63;100.00
34931;BME280;21134;49.646;8.560;2022-09-28T05:09:55;98613.88;;;9.61;100.00
34931;BME280;21134;49.646;8.560;2022-09-28T05:12:21;98619.84;;;9.60;100.00
34931;BME280;21134;49.646;8.560;2022-09-28T05:14:49;98624.09;;;9.60;100.00
34931;BME280;21134;49.646;8.560;2022-09-28T05:17:16;98621.63;;;9.57;100.00
34931;BME280;21134;49.646;8.560;2022-09-28T05:19:42;98629.22;;;9.60;100.00
34931;BME280;21134;49.646;8.560;2022-09-28T05:22:09;98627.50;;;9.60;100.00
34931;BME280;21134;49.646;8.560;2022-09-28T05:24:39;98630.13;;;9.57;100.00
34931;BME280;21134;49.646;8.560;2022-09-28T05:27:05;98628.44;;;9.58;100.00
34931;BME280;21134;49.646;8.560;2022-09-28T05:29:32;98630.19;;;9.55;100.00
34931;BME280;21134;49.646;8.560;2022-09-28T05:32:00;98631.09;;;9.53;100.00
34931;BME280;21134;49.646;8.560;2022-09-28T05:34:26;98626.72;;;9.58;100.00
34931;BME280;21134;49.646;8.560;2022-09-28T05:36:53;98633.63;;;9.54;100.00
34931;BME280;21134;49.646;8.560;2022-09-28T05:39:19;98634.63;;;9.49;100.00
34931;BME280;21134;49.646;8.560;2022-09-28T05:41:46;98631.31;;;9.45;100.00
34931;BME280;21134;49.646;8.560;2022-09-28T05:44:12;98642.44;;;9.43;100.00
34931;BME280;21134;49.646;8.560;2022-09-28T05:46:39;98643.25;;;9.43;100.00
34931;BME280;21134;49.646;8.560;2022-09-28T05:49:06;98645.88;;;9.42;100.00
34931;BME280;21134;49.646;8.560;2022-09-28T05:51:33;98647.66;;;9.38;100.00
34931;BME280;21134;49.646;8.560;2022-09-28T05:53:59;98655.41;;;9.35;100.00
34931;BME280;21134;49.646;8.560;2022-09-28T05:56:28;98657.16;;;9.33;100.00
34931;BME280;21134;49.646;8.560;2022-09-28T05:58:56;98659.66;;;9.35;100.00
34931;BME280;21134;49.646;8.560;2022-09-28T06:01:22;98667.34;;;9.33;100.00
34931;BME280;21134;49.646;8.560;2022-09-28T06:03:49;98665.63;;;9.34;100.00
34931;BME280;21134;49.646;8.560;2022-09-28T06:06:17;98663.25;;;9.27;100.00
34931;BME280;21134;49.646;8.560;2022-09-28T06:08:43;98670.91;;;9.27;100.00
34931;BME280;21134;49.646;8.560;2022-09-28T06:11:12;98666.69;;;9.25;100.00
34931;BME280;21134;49.646;8.560;2022-09-28T06:13:39;98665.88;;;9.24;100.00
34931;BME280;21134;49.646;8.560;2022-09-28T06:16:06;98671.03;;;9.21;100.00
34931;BME280;21134;49.646;8.560;2022-09-28T06:18:33;98673.66;;;9.18;100.00
34931;BME280;21134;49.646;8.560;2022-09-28T06:20:59;98664.28;;;9.19;100.00
34931;BME280;21134;49.646;8.560;2022-09-28T06:23:28;98667.66;;;9.21;100.00
34931;BME280;21134;49.646;8.560;2022-09-28T06:25:54;98679.53;;;9.22;100.00
34931;BME280;21134;49.646;8.560;2022-09-28T06:28:21;98684.72;;;9.19;100.00
34931;BME280;21134;49.646;8.560;2022-09-28T06:30:47;98692.38;;;9.19;100.00
34931;BME280;21134;49.646;8.560;2022-09-28T06:33:14;98689.78;;;9.20;100.00
34931;BME280;21134;49.646;8.560;2022-09-28T06:35:40;98697.31;;;9.25;100.00
34931;BME280;21134;49.646;8.560;2022-09-28T06:38:07;98701.34;;;9.35;100.00
34931;BME280;21134;49.646;8.560;2022-09-28T06:40:35;98697.78;;;9.41;100.00
34931;BME280;21134;49.646;8.560;2022-09-28T06:43:03;98703.66;;;9.44;100.00
34931;BME280;21134;49.646;8.560;2022-09-28T06:45:34;98700.94;;;9.50;100.00
34931;BME280;21134;49.646;8.560;2022-09-28T06:48:01;98700.91;;;9.52;100.00
34931;BME280;21134;49.646;8.560;2022-09-28T06:50:30;98696.31;;;9.65;100.00
34931;BME280;21134;49.646;8.560;2022-09-28T06:52:57;98704.59;;;9.74;100.00
34931;BME280;21134;49.646;8.560;2022-09-28T06:55:23;98708.63;;;9.82;100.00
34931;BME280;21134;49.646;8.560;2022-09-28T06:57:57;98710.22;;;9.86;100.00
34931;BME280;21134;49.646;8.560;2022-09-28T07:00:24;98716.78;;;9.96;100.00
34931;BME280;21134;49.646;8.560;2022-09-28T07:02:51;98714.00;;;10.04;100.00
34931;BME280;21134;49.646;8.560;2022-09-28T07:05:18;98718.97;;;10.10;100.00
34931;BME280;21134;49.646;8.560;2022-09-28T07:07:50;98722.97;;;10.18;100.00
34931;BME280;21134;49.646;8.560;2022-09-28T07:10:19;98729.38;;;10.35;100.00
34931;BME280;21134;49.646;8.560;2022-09-28T07:12:46;98732.69;;;10.37;100.00
34931;BME280;21134;49.646;8.560;2022-09-28T07:15:14;98735.72;;;10.51;100.00
34931;BME280;21134;49.646;8.560;2022-09-28T07:17:40;98733.63;;;10.64;94.96
34931;BME280;21134;49.646;8.560;2022-09-28T07:20:07;98737.81;;;10.66;94.47
34931;BME280;21134;49.646;8.560;2022-09-28T07:22:34;98730.94;;;10.68;95.03
34931;BME280;21134;49.646;8.560;2022-09-28T07:25:01;98736.75;;;10.74;95.40
34931;BME280;21134;49.646;8.560;2022-09-28T07:27:27;98741.22;;;10.95;94.86
34931;BME280;21134;49.646;8.560;2022-09-28T07:29:53;98744.56;;;10.97;93.41
34931;BME280;21134;49.646;8.560;2022-09-28T07:32:22;98749.72;;;10.96;92.55
34931;BME280;21134;49.646;8.560;2022-09-28T07:34:48;98758.44;;;10.90;91.64
34931;BME280;21134;49.646;8.560;2022-09-28T07:37:15;98759.03;;;10.98;90.79
34931;BME280;21134;49.646;8.560;2022-09-28T07:39:43;98764.44;;;10.89;90.30
34931;BME280;21134;49.646;8.560;2022-09-28T07:42:41;98765.09;;;10.96;89.16
34931;BME280;21134;49.646;8.560;2022-09-28T07:45:08;98768.91;;;11.10;85.12
34931;BME280;21134;49.646;8.560;2022-09-28T07:47:36;98781.59;;;11.13;87.66
34931;BME280;21134;49.646;8.560;2022-09-28T07:50:04;98776.09;;;11.26;87.40
34931;BME280;21134;49.646;8.560;2022-09-28T07:52:30;98779.63;;;11.22;86.34
34931;BME280;21134;49.646;8.560;2022-09-28T07:54:59;98791.34;;;11.29;85.12
34931;BME280;21134;49.646;8.560;2022-09-28T07:57:26;98795.84;;;11.22;86.79
34931;BME280;21134;49.646;8.560;2022-09-28T07:59:53;98797.81;;;11.40;83.43
34931;BME280;21134;49.646;8.560;2022-09-28T08:02:20;98802.47;;;11.56;84.28
34931;BME280;21134;49.646;8.560;2022-09-28T08:04:49;98799.41;;;11.71;84.96
34931;BME280;21134;49.646;8.560;2022-09-28T08:07:16;98808.66;;;12.02;85.46
34931;BME280;21134;49.646;8.560;2022-09-28T08:09:43;98808.84;;;12.21;80.59
34931;BME280;21134;49.646;8.560;2022-09-28T08:12:10;98808.19;;;12.16;78.59
34931;BME280;21134;49.646;8.560;2022-09-28T08:14:37;98809.44;;;12.04;78.71
34931;BME280;21134;49.646;8.560;2022-09-28T08:17:04;98805.25;;;12.01;77.59
34931;BME280;21134;49.646;8.560;2022-09-28T08:19:32;98813.84;;;12.00;79.12
34931;BME280;21134;49.646;8.560;2022-09-28T08:22:15;98813.66;;;12.05;78.52
34931;BME280;21134;49.646;8.560;2022-09-28T08:24:42;98819.00;;;11.99;80.00
34931;BME280;21134;49.646;8.560;2022-09-28T08:27:09;98820.28;;;11.87;79.84
34931;BME280;21134;49.646;8.560;2022-09-28T08:29:35;98824.75;;;12.05;79.25
34931;BME280;21134;49.646;8.560;2022-09-28T08:32:02;98823.28;;;11.98;80.96
34931;BME280;21134;49.646;8.560;2022-09-28T08:34:30;98827.53;;;11.99;82.46
34931;BME280;21134;49.646;8.560;2022-09-28T08:36:57;98831.06;;;11.97;82.13
34931;BME280;21134;49.646;8.560;2022-09-28T08:39:25;98828.59;;;11.94;81.31
34931;BME280;21134;49.646;8.560;2022-09-28T08:42:01;98831.81;;;11.99;81.70
34931;BME280;21134;49.646;8.560;2022-09-28T08:44:38;98821.53;;;12.00;80.72
34931;BME280;21134;49.646;8.560;2022-09-28T08:47:11;98835.91;;;12.04;80.29
34931;BME280;21134;49.646;8.560;2022-09-28T08:50:03;98841.53;;;12.16;78.68
34931;BME280;21134;49.646;8.560;2022-09-28T08:52:33;98835.59;;;12.14;79.83
34931;BME280;21134;49.646;8.560;2022-09-28T08:55:07;98830.31;;;12.18;79.89
34931;BME280;21134;49.646;8.560;2022-09-28T08:57:40;98836.69;;;12.31;77.91
34931;BME280;21134;49.646;8.560;2022-09-28T09:00:14;98836.63;;;12.33;79.04
34931;BME280;21134;49.646;8.560;2022-09-28T09:02:42;98839.03;;;12.38;79.17
34931;BME280;21134;49.646;8.560;2022-09-28T09:05:12;98833.34;;;12.29;79.00
34931;BME280;21134;49.646;8.560;2022-09-28T09:07:58;98846.00;;;12.34;79.90
34931;BME280;21134;49.646;8.560;2022-09-28T09:10:48;98843.00;;;12.46;80.81
34931;BME280;21134;49.646;8.560;2022-09-28T09:13:30;98850.50;;;12.52;78.75
34931;BME280;21134;49.646;8.560;2022-09-28T09:16:07;98849.66;;;12.75;77.62
34931;BME280;21134;49.646;8.560;2022-09-28T09:18:41;98846.88;;;12.82;77.23
34931;BME280;21134;49.646;8.560;2022-09-28T09:21:13;98858.66;;;12.87;74.91
34931;BME280;21134;49.646;8.560;2022-09-28T09:23:50;98851.41;;;12.75;73.80
34931;BME280;21134;49.646;8.560;2022-09-28T09:26:25;98846.66;;;12.64;76.25
34931;BME280;21134;49.646;8.560;2022-09-28T09:29:11;98844.13;;;12.63;73.15
34931;BME280;21134;49.646;8.560;2022-09-28T09:31:53;98852.78;;;12.60;75.90
34931;BME280;21134;49.646;8.560;2022-09-28T09:34:48;98850.91;;;12.65;76.26
34931;BME280;21134;49.646;8.560;2022-09-28T09:37:28;98852.63;;;12.65;75.01
34931;BME280;21134;49.646;8.560;2022-09-28T09:40:14;98845.72;;;12.67;76.06
34931;BME280;21134;49.646;8.560;2022-09-28T09:42:55;98845.03;;;12.85;73.49
34931;BME280;21134;49.646;8.560;2022-09-28T09:45:46;98847.28;;;13.16;74.08
34931;BME280;21134;49.646;8.560;2022-09-28T09:48:22;98841.88;;;13.46;72.46
34931;BME280;21134;49.646;8.560;2022-09-28T09:50:54;98835.88;;;13.89;71.47
34931;BME280;21134;49.646;8.560;2022-09-28T09:53:26;98840.19;;;14.30;67.18
34931;BME280;21134;49.646;8.560;2022-09-28T09:56:00;98853.66;;;14.35;65.92
34931;BME280;21134;49.646;8.560;2022-09-28T09:58:33;98841.72;;;14.13;66.21
34931;BME280;21134;49.646;8.560;2022-09-28T10:01:06;98851.50;;;13.85;68.49
34931;BME280;21134;49.646;8.560;2022-09-28T10:03:36;98847.19;;;13.85;67.81
34931;BME280;21134;49.646;8.560;2022-09-28T10:06:07;98851.19;;;13.70;68.82
34931;BME280;21134;49.646;8.560;2022-09-28T10:08:39;98852.31;;;13.85;66.99
34931;BME280;21134;49.646;8.560;2022-09-28T10:11:10;98848.44;;;13.75;67.45
34931;BME280;21134;49.646;8.560;2022-09-28T10:13:39;98847.31;;;13.82;68.12
34931;BME280;21134;49.646;8.560;2022-09-28T10:16:07;98848.84;;;13.86;67.99
34931;BME280;21134;49.646;8.560;2022-09-28T10:18:33;98844.88;;;14.00;67.72
34931;BME280;21134;49.646;8.560;2022-09-28T10:21:01;98848.16;;;14.03;66.40
34931;BME280;21134;49.646;8.560;2022-09-28T10:23:30;98843.09;;;14.02;65.24
34931;BME280;21134;49.646;8.560;2022-09-28T10:26:02;98849.31;;;14.16;63.72
34931;BME280;21134;49.646;8.560;2022-09-28T10:28:33;98853.88;;;14.30;60.89
34931;BME280;21134;49.646;8.560;2022-09-28T10:31:34;98859.38;;;14.41;63.47
34931;BME280;21134;49.646;8.560;2022-09-28T10:34:01;98856.06;;;14.39;60.06
34931;BME280;21134;49.646;8.560;2022-09-28T10:36:30;98858.94;;;14.32;61.51
34931;BME280;21134;49.646;8.560;2022-09-28T10:39:03;98861.97;;;14.41;60.88
34931;BME280;21134;49.646;8.560;2022-09-28T10:41:30;98860.94;;;14.46;59.94
34931;BME280;21134;49.646;8.560;2022-09-28T10:44:00;98859.75;;;14.73;60.30
34931;BME280;21134;49.646;8.560;2022-09-28T10:46:37;98859.38;;;15.01;61.25
34931;BME280;21134;49.646;8.560;2022-09-28T10:49:06;98863.31;;;15.27;58.77
34931;BME280;21134;49.646;8.560;2022-09-28T10:51:41;98858.81;;;15.14;59.57
34931;BME280;21134;49.646;8.560;2022-09-28T10:54:13;98860.28;;;15.00;60.22
34931;BME280;21134;49.646;8.560;2022-09-28T10:56:40;98865.16;;;14.87;60.77
34931;BME280;21134;49.646;8.560;2022-09-28T10:59:22;98857.81;;;14.78;62.03
34931;BME280;21134;49.646;8.560;2022-09-28T11:01:53;98859.72;;;14.54;62.37
34931;BME280;21134;49.646;8.560;2022-09-28T11:04:23;98861.69;;;14.48;59.62
34931;BME280;21134;49.646;8.560;2022-09-28T11:06:52;98860.94;;;14.46;61.68
34931;BME280;21134;49.646;8.560;2022-09-28T11:09:27;98860.44;;;14.37;59.84
34931;BME280;21134;49.646;8.560;2022-09-28T11:11:54;98862.97;;;14.39;61.60
34931;BME280;21134;49.646;8.560;2022-09-28T11:14:26;98869.56;;;14.45;59.10
34931;BME280;21134;49.646;8.560;2022-09-28T11:17:16;98860.50;;;14.15;59.35
34931;BME280;21134;49.646;8.560;2022-09-28T11:19:44;98862.13;;;13.98;61.63
34931;BME280;21134;49.646;8.560;2022-09-28T11:22:25;98858.31;;;13.86;62.99
34931;BME280;21134;49.646;8.560;2022-09-28T11:25:18;98863.56;;;13.83;63.01
34931;BME280;21134;49.646;8.560;2022-09-28T11:27:56;98865.09;;;13.87;63.35
34931;BME280;21134;49.646;8.560;2022-09-28T11:30:25;98865.47;;;13.78;63.55
34931;BME280;21134;49.646;8.560;2022-09-28T11:32:56;98858.91;;;13.70;64.03
34931;BME280;21134;49.646;8.560;2022-09-28T11:35:36;98861.69;;;13.66;63.72
34931;BME280;21134;49.646;8.560;2022-09-28T11:38:22;98859.03;;;13.67;63.76
34931;BME280;21134;49.646;8.560;2022-09-28T11:41:05;98864.47;;;13.82;61.87
34931;BME280;21134;49.646;8.560;2022-09-28T11:43:57;98866.47;;;13.53;63.07
34931;BME280;21134;49.646;8.560;2022-09-28T11:46:33;98860.66;;;13.48;64.48
34931;BME280;21134;49.646;8.560;2022-09-28T11:49:12;98867.81;;;13.62;62.68
34931;BME280;21134;49.646;8.560;2022-09-28T11:51:42;98869.03;;;13.53;63.55
34931;BME280;21134;49.646;8.560;2022-09-28T11:54:13;98862.91;;;13.56;64.03
34931;BME280;21134;49.646;8.560;2022-09-28T11:56:44;98865.56;;;13.54;65.45
34931;BME280;21134;49.646;8.560;2022-09-28T11:59:15;98859.41;;;13.58;65.87
34931;BME280;21134;49.646;8.560;2022-09-28T12:01:47;98859.69;;;13.72;62.57
34931;BME280;21134;49.646;8.560;2022-09-28T12:04:20;98868.94;;;13.77;64.68
34931;BME280;21134;49.646;8.560;2022-09-28T12:06:52;98869.22;;;13.91;62.39
34931;BME280;21134;49.646;8.560;2022-09-28T12:09:29;98869.97;;;13.94;61.74
34931;BME280;21134;49.646;8.560;2022-09-28T12:12:02;98860.03;;;14.06;62.88
34931;BME280;21134;49.646;8.560;2022-09-28T12:14:32;98868.16;;;14.17;62.28
34931;BME280;21134;49.646;8.560;2022-09-28T12:17:03;98872.59;;;14.34;59.49
34931;BME280;21134;49.646;8.560;2022-09-28T12:19:34;98868.72;;;14.44;60.56
34931;BME280;21134;49.646;8.560;2022-09-28T12:22:09;98863.88;;;14.77;58.63
34931;BME280;21134;49.646;8.560;2022-09-28T12:24:40;98861.38;;;14.95;58.62
34931;BME280;21134;49.646;8.560;2022-09-28T12:27:13;98864.94;;;15.11;57.62
34931;BME280;21134;49.646;8.560;2022-09-28T12:29:45;98863.19;;;14.93;56.82
34931;BME280;21134;49.646;8.560;2022-09-28T12:32:22;98860.69;;;14.91;56.50
34931;BME280;21134;49.646;8.560;2022-09-28T12:34:53;98857.34;;;14.89;56.07
34931;BME280;21134;49.646;8.560;2022-09-28T12:37:29;98862.28;;;14.94;56.67
34931;BME280;21134;49.646;8.560;2022-09-28T12:40:20;98865.56;;;14.78;56.00
34931;BME280;21134;49.646;8.560;2022-09-28T12:43:02;98867.28;;;14.78;57.16
34931;BME280;21134;49.646;8.560;2022-09-28T12:45:53;98863.25;;;14.91;58.59
34931;BME280;21134;49.646;8.560;2022-09-28T12:48:44;98855.66;;;15.26;58.07
34931;BME280;21134;49.646;8.560;2022-09-28T12:51:26;98864.50;;;15.20;57.92
34931;BME280;21134;49.646;8.560;2022-09-28T12:54:00;98863.41;;;15.07;58.20
34931;BME280;21134;49.646;8.560;2022-09-28T12:56:40;98855.59;;;14.89;60.38
34931;BME280;21134;49.646;8.560;2022-09-28T12:59:16;98854.75;;;14.70;60.75
34931;BME280;21134;49.646;8.560;2022-09-28T13:02:00;98865.69;;;14.55;61.76
34931;BME280;21134;49.646;8.560;2022-09-28T13:04:56;98862.44;;;14.51;60.72
34931;BME280;21134;49.646;8.560;2022-09-28T13:07:32;98863.28;;;14.52;61.13
34931;BME280;21134;49.646;8.560;2022-09-28T13:10:10;98859.47;;;14.60;61.35
34931;BME280;21134;49.646;8.560;2022-09-28T13:12:51;98859.28;;;14.65;62.34
34931;BME280;21134;49.646;8.560;2022-09-28T13:15:29;98858.16;;;14.71;60.65
34931;BME280;21134;49.646;8.560;2022-09-28T13:18:03;98860.53;;;14.75;61.36
34931;BME280;21134;49.646;8.560;2022-09-28T13:20:50;98855.13;;;14.81;61.05